Time;durP1;ratioP1;P1;durP2;ratioP2;P2;SDS_P1;SDS_P2;PMS_P1;PMS_P2;Temp;Humidity;BMP_temperature;BMP_pressure;BME280_temperature;BME280_humidity;BME280_pressure;Samples;Min_cycle;Max_cycle;Signal;HPM_P1;HPM_P2
2023/05/03 00:00:32;;;;;;;;;;;;;;;-140.72;100.00;52780.47;5089468;28;19999;-71
2023/05/03 00:02:57;;;;;;;;;;;;;;;-140.72;100.00;52808.88;5092324;28;19956;-71
2023/05/03 00:05:25;;;;;;;;;;;;;;;-140.72;100.00;52776.41;5084465;28;19923;-71
2023/05/03 00:07:51;;;;;;;;;;;;;;;-140.72;100.00;52766.25;5084808;28;19964;-71
2023/05/03 00:10:16;;;;;;;;;;;;;;;-140.72;100.00;52792.66;5087705;28;19966;-71
2023/05/03 00:12:42;;;;;;;;;;;;;;;-140.72;100.00;52800.75;5092770;28;19920;-71
2023/05/03 00:15:08;;;;;;;;;;;;;;;-140.72;100.00;52800.75;5094572;28;20361;-72
2023/05/03 00:17:33;;;;;;;;;;;;;;;-140.72;100.00;52798.72;5083750;28;19923;-69
2023/05/03 00:19:59;;;;;;;;;;;;;;;-140.72;100.00;52796.72;5085721;28;19923;-70
2023/05/03 00:22:24;;;;;;;;;;;;;;;-140.72;100.00;52817.00;5086067;28;19956;-71
2023/05/03 00:24:50;;;;;;;;;;;;;;;-140.72;100.00;52792.66;5092799;28;19920;-71
2023/05/03 00:27:15;;;;;;;;;;;;;;;-140.72;100.00;52812.94;5082375;28;19931;-71
2023/05/03 00:29:41;;;;;;;;;;;;;;;-140.72;100.00;52792.66;5096129;28;20045;-71
2023/05/03 00:32:07;;;;;;;;;;;;;;;-140.72;100.00;52792.66;5094008;28;19961;-71
2023/05/03 00:34:32;;;;;;;;;;;;;;;-140.72;100.00;52827.16;5084185;28;19989;-69
2023/05/03 00:36:57;;;;;;;;;;;;;;;-140.72;100.00;52792.66;5083822;28;20406;-69
2023/05/03 00:39:23;;;;;;;;;;;;;;;-140.72;100.00;52825.13;5084582;28;19939;-69
2023/05/03 00:41:48;;;;;;;;;;;;;;;-140.72;100.00;52754.09;5083071;28;19916;-71
2023/05/03 00:44:13;;;;;;;;;;;;;;;-140.72;100.00;52804.81;5083783;28;19926;-71
2023/05/03 00:46:39;;;;;;;;;;;;;;;-140.72;100.00;52792.66;5087891;28;19997;-71
2023/05/03 00:49:05;;;;;;;;;;;;;;;-140.72;100.00;52821.06;5093483;28;19923;-71
2023/05/03 00:51:30;;;;;;;;;;;;;;;-140.72;100.00;52819.03;5093073;28;19917;-71
2023/05/03 00:53:56;;;;;;;;;;;;;;;-140.72;100.00;52810.91;5089401;28;19926;-71
2023/05/03 00:56:22;;;;;;;;;;;;;;;-140.72;100.00;52806.84;5089307;28;19917;-71
2023/05/03 00:59:04;;;;;;;;;;;;;;;-140.72;100.00;52806.84;5087850;28;20297;-71
2023/05/03 01:01:31;;;;;;;;;;;;;;;-140.72;100.00;52829.19;5086904;28;19920;-71
2023/05/03 01:03:57;;;;;;;;;;;;;;;-140.72;100.00;52823.09;5081979;28;19935;-71
2023/05/03 01:06:31;;;;;;;;;;;;;;;-140.72;100.00;52817.00;5079850;28;19920;-71
2023/05/03 01:09:11;;;;;;;;;;;;;;;-140.72;100.00;52804.81;5081270;28;20370;-71
2023/05/03 01:11:45;;;;;;;;;;;;;;;-140.72;100.00;52808.88;5085317;28;19923;-69
2023/05/03 01:14:29;;;;;;;;;;;;;;;-140.72;100.00;52821.06;5076509;28;19920;-70
2023/05/03 01:16:57;;;;;;;;;;;;;;;-140.72;100.00;52806.84;5084749;28;19920;-69
2023/05/03 01:19:32;;;;;;;;;;;;;;;-140.72;100.00;52780.47;5086389;28;19926;-70
2023/05/03 01:22:06;;;;;;;;;;;;;;;-140.72;100.00;52788.59;5077677;28;19938;-70
2023/05/03 01:24:34;;;;;;;;;;;;;;;-140.72;100.00;52806.84;5080709;28;20019;-70
2023/05/03 01:26:59;;;;;;;;;;;;;;;-140.72;100.00;52841.34;5087941;28;19938;-70
2023/05/03 01:29:31;;;;;;;;;;;;;;;-140.72;100.00;52802.78;5084033;28;20446;-70
2023/05/03 01:32:00;;;;;;;;;;;;;;;-140.72;100.00;52841.34;5092975;28;19977;-70
2023/05/03 01:34:45;;;;;;;;;;;;;;;-140.72;100.00;52853.53;5082628;28;19924;-70
2023/05/03 01:37:12;;;;;;;;;;;;;;;-140.72;100.00;52821.06;5088221;28;19920;-70
2023/05/03 01:39:42;;;;;;;;;;;;;;;-140.72;100.00;52837.28;5082965;28;19920;-70
2023/05/03 01:42:17;;;;;;;;;;;;;;;-140.72;100.00;52812.94;5087880;28;20294;-70
2023/05/03 01:44:43;;;;;;;;;;;;;;;-140.72;100.00;52825.13;5083960;28;19942;-70
2023/05/03 01:47:14;;;;;;;;;;;;;;;-140.72;100.00;52837.28;5089051;28;19920;-70
2023/05/03 01:49:39;;;;;;;;;;;;;;;-140.72;100.00;52784.53;5090604;28;19926;-70
2023/05/03 01:52:05;;;;;;;;;;;;;;;-140.72;100.00;52810.91;5080672;28;19999;-70
2023/05/03 01:54:30;;;;;;;;;;;;;;;-140.72;100.00;52837.28;5093929;28;19920;-70
2023/05/03 01:56:55;;;;;;;;;;;;;;;-140.72;100.00;52843.38;5087157;28;20378;-70
2023/05/03 01:59:21;;;;;;;;;;;;;;;-140.72;100.00;52857.59;5090481;28;19916;-70
2023/05/03 02:01:46;;;;;;;;;;;;;;;-140.72;100.00;52847.44;5084859;28;19920;-70
2023/05/03 02:04:11;;;;;;;;;;;;;;;-140.72;100.00;52812.94;5093854;28;20410;-70
2023/05/03 02:06:36;;;;;;;;;;;;;;;-140.72;100.00;52833.22;5089383;28;20387;-70
2023/05/03 02:09:02;;;;;;;;;;;;;;;-140.72;100.00;52804.81;5085303;28;20003;-70
2023/05/03 02:11:27;;;;;;;;;;;;;;;-140.72;100.00;52823.09;5091172;28;19927;-70
2023/05/03 02:14:02;;;;;;;;;;;;;;;-140.72;100.00;52831.19;5086750;28;19982;-69
2023/05/03 02:16:28;;;;;;;;;;;;;;;-140.72;100.00;52855.56;5088548;28;19920;-70
2023/05/03 02:18:58;;;;;;;;;;;;;;;-140.72;100.00;52817.00;5086504;28;20022;-71
2023/05/03 02:21:32;;;;;;;;;;;;;;;-140.72;100.00;52819.03;5075059;28;19980;-71
2023/05/03 02:23:58;;;;;;;;;;;;;;;-140.72;100.00;52819.03;5090692;28;19928;-70
2023/05/03 02:26:23;;;;;;;;;;;;;;;-140.72;100.00;52879.91;5086484;28;19963;-70
2023/05/03 02:28:49;;;;;;;;;;;;;;;-140.72;100.00;52823.09;5087769;28;19962;-70
2023/05/03 02:31:14;;;;;;;;;;;;;;;-140.72;100.00;52839.31;5078649;28;19916;-70
2023/05/03 02:33:41;;;;;;;;;;;;;;;-140.72;100.00;52873.81;5085710;28;19969;-70
2023/05/03 02:36:07;;;;;;;;;;;;;;;-140.72;100.00;52817.00;5081253;28;19920;-70
2023/05/03 02:38:35;;;;;;;;;;;;;;;-140.72;100.00;52845.41;5087143;28;19921;-70
2023/05/03 02:41:01;;;;;;;;;;;;;;;-140.72;100.00;52841.34;5093384;28;19917;-70
2023/05/03 02:43:26;;;;;;;;;;;;;;;-140.72;100.00;52865.69;5089421;28;19986;-70
2023/05/03 02:45:51;;;;;;;;;;;;;;;-140.72;100.00;52812.94;5086635;28;19946;-70
2023/05/03 02:48:16;;;;;;;;;;;;;;;-140.72;100.00;52831.19;5092222;28;19919;-70
2023/05/03 02:50:42;;;;;;;;;;;;;;;-140.72;100.00;52845.41;5093614;28;19920;-70
2023/05/03 02:53:07;;;;;;;;;;;;;;;-140.72;100.00;52867.72;5093568;28;19920;-70
2023/05/03 02:55:38;;;;;;;;;;;;;;;-140.72;100.00;52863.66;5084690;28;20290;-70
2023/05/03 02:58:04;;;;;;;;;;;;;;;-140.72;100.00;52849.47;5082643;28;19927;-70
2023/05/03 03:00:29;;;;;;;;;;;;;;;-140.72;100.00;52839.31;5081206;28;20378;-70
2023/05/03 03:03:04;;;;;;;;;;;;;;;-140.72;100.00;52837.28;5089699;28;19920;-70
2023/05/03 03:05:30;;;;;;;;;;;;;;;-140.72;100.00;52802.78;5092116;28;20417;-70
2023/05/03 03:07:55;;;;;;;;;;;;;;;-140.72;100.00;52837.28;5087031;28;19925;-70
2023/05/03 03:10:20;;;;;;;;;;;;;;;-140.72;100.00;52831.19;5086120;28;20011;-70
2023/05/03 03:12:46;;;;;;;;;;;;;;;-140.72;100.00;52821.06;5093703;28;19923;-70
2023/05/03 03:15:12;;;;;;;;;;;;;;;-140.72;100.00;52829.19;5090628;28;19920;-70
2023/05/03 03:17:38;;;;;;;;;;;;;;;-140.72;100.00;52827.16;5094602;28;20012;-70
2023/05/03 03:20:05;;;;;;;;;;;;;;;-140.72;100.00;52890.06;5095649;28;20005;-71
2023/05/03 03:22:30;;;;;;;;;;;;;;;-140.72;100.00;52855.56;5091480;28;19924;-71
2023/05/03 03:24:55;;;;;;;;;;;;;;;-140.72;100.00;52817.00;5101643;28;19947;-71
2023/05/03 03:27:22;;;;;;;;;;;;;;;-140.72;100.00;52812.94;5088807;28;20011;-71
2023/05/03 03:29:47;;;;;;;;;;;;;;;-140.72;100.00;52861.66;5096096;28;19920;-71
2023/05/03 03:32:12;;;;;;;;;;;;;;;-140.72;100.00;52817.00;5087097;28;19923;-70
2023/05/03 03:34:37;;;;;;;;;;;;;;;-140.72;100.00;52853.53;5093948;28;19916;-71
2023/05/03 03:37:03;;;;;;;;;;;;;;;-140.72;100.00;52851.50;5094206;28;19917;-71
2023/05/03 03:39:28;;;;;;;;;;;;;;;-140.72;100.00;52845.41;5098123;28;20007;-71
2023/05/03 03:41:53;;;;;;;;;;;;;;;-140.72;100.00;52841.34;5094112;28;19975;-70
2023/05/03 03:44:19;;;;;;;;;;;;;;;-140.72;100.00;52879.91;5083057;28;20374;-70
2023/05/03 03:46:44;;;;;;;;;;;;;;;-140.72;100.00;52873.81;5077906;28;19916;-71
2023/05/03 03:49:09;;;;;;;;;;;;;;;-140.72;100.00;52849.47;5092643;28;19920;-70
2023/05/03 03:51:34;;;;;;;;;;;;;;;-140.72;100.00;52827.16;5093271;28;20027;-71
2023/05/03 03:54:00;;;;;;;;;;;;;;;-140.72;100.00;52883.97;5093803;28;19927;-71
2023/05/03 03:56:25;;;;;;;;;;;;;;;-140.72;100.00;52865.69;5089150;28;19944;-70
2023/05/03 03:58:50;;;;;;;;;;;;;;;-140.72;100.00;52829.19;5090190;28;19920;-70
2023/05/03 04:01:16;;;;;;;;;;;;;;;-140.72;100.00;52847.44;5088816;28;19924;-71
2023/05/03 04:03:44;;;;;;;;;;;;;;;-140.72;100.00;52877.88;5091302;28;19964;-71
2023/05/03 04:06:10;;;;;;;;;;;;;;;-140.72;100.00;52845.41;5087657;28;19924;-71
2023/05/03 04:08:35;;;;;;;;;;;;;;;-140.72;100.00;52886.00;5086847;28;19920;-71
2023/05/03 04:11:01;;;;;;;;;;;;;;;-140.72;100.00;52869.75;5093251;28;20077;-70
2023/05/03 04:13:27;;;;;;;;;;;;;;;-140.72;100.00;52855.56;5082314;28;20374;-71
2023/05/03 04:15:56;;;;;;;;;;;;;;;-140.72;100.00;52851.50;5080207;28;19922;-71
2023/05/03 04:18:21;;;;;;;;;;;;;;;-140.72;100.00;52877.88;5082862;28;20380;-71
2023/05/03 04:20:47;;;;;;;;;;;;;;;-140.72;100.00;52863.66;5084455;28;19998;-70
2023/05/03 04:23:12;;;;;;;;;;;;;;;-140.72;100.00;52839.31;5088925;28;20020;-71
2023/05/03 04:25:37;;;;;;;;;;;;;;;-140.72;100.00;52904.25;5088544;28;19920;-71
2023/05/03 04:28:03;;;;;;;;;;;;;;;-140.72;100.00;52845.41;5082786;28;19928;-70
2023/05/03 04:30:28;;;;;;;;;;;;;;;-140.72;100.00;52849.47;5088252;28;20374;-70
2023/05/03 04:32:54;;;;;;;;;;;;;;;-140.72;100.00;52881.94;5085804;28;19959;-70
2023/05/03 04:35:19;;;;;;;;;;;;;;;-140.72;100.00;52845.41;5096070;28;22517;-70
2023/05/03 04:37:44;;;;;;;;;;;;;;;-140.72;100.00;52837.28;5094773;28;19931;-71
2023/05/03 04:40:11;;;;;;;;;;;;;;;-140.72;100.00;52857.59;5094018;28;19927;-71
2023/05/03 04:42:36;;;;;;;;;;;;;;;-140.72;100.00;52865.69;5092016;28;20378;-70
2023/05/03 04:45:02;;;;;;;;;;;;;;;-140.72;100.00;52857.59;5084081;28;20022;-71
2023/05/03 04:47:28;;;;;;;;;;;;;;;-140.72;100.00;52861.66;5088436;28;20007;-71
2023/05/03 04:49:53;;;;;;;;;;;;;;;-140.72;100.00;52837.28;5082866;28;20399;-70
2023/05/03 04:52:18;;;;;;;;;;;;;;;-140.72;100.00;52890.06;5087942;28;20008;-70
2023/05/03 04:54:44;;;;;;;;;;;;;;;-140.72;100.00;52843.38;5077641;28;20321;-70
2023/05/03 04:57:09;;;;;;;;;;;;;;;-140.72;100.00;52855.56;5092591;28;20270;-70
2023/05/03 04:59:35;;;;;;;;;;;;;;;-140.72;100.00;52855.56;5087128;28;19967;-70
2023/05/03 05:02:05;;;;;;;;;;;;;;;-140.72;100.00;52861.66;5092655;28;19986;-70
2023/05/03 05:04:30;;;;;;;;;;;;;;;-140.72;100.00;52869.75;5085767;28;20409;-70
2023/05/03 05:07:02;;;;;;;;;;;;;;;-140.72;100.00;52855.56;5095645;28;19947;-70
2023/05/03 05:09:29;;;;;;;;;;;;;;;-140.72;100.00;52863.66;5087140;28;19927;-71
2023/05/03 05:11:55;;;;;;;;;;;;;;;-140.72;100.00;52849.47;5093341;28;19966;-70
2023/05/03 05:14:20;;;;;;;;;;;;;;;-140.72;100.00;52833.22;5099491;28;19916;-71
2023/05/03 05:16:45;;;;;;;;;;;;;;;-140.72;100.00;52890.06;5086735;28;19927;-71
2023/05/03 05:19:11;;;;;;;;;;;;;;;-140.72;100.00;52839.31;5087245;28;20011;-72
2023/05/03 05:21:37;;;;;;;;;;;;;;;-140.72;100.00;52825.13;5088015;28;20083;-73
2023/05/03 05:24:03;;;;;;;;;;;;;;;-140.72;100.00;52849.47;5088976;28;20382;-75
2023/05/03 05:26:28;;;;;;;;;;;;;;;-140.72;100.00;52814.97;5091233;28;19916;-75
2023/05/03 05:28:53;;;;;;;;;;;;;;;-140.72;100.00;52819.03;5088221;28;19916;-75
2023/05/03 05:31:19;;;;;;;;;;;;;;;-140.72;100.00;52845.41;5094203;28;19924;-76
2023/05/03 05:33:44;;;;;;;;;;;;;;;-140.72;100.00;52812.94;5080559;28;20008;-74
2023/05/03 05:36:10;;;;;;;;;;;;;;;-140.72;100.00;52827.16;5082952;27;19917;-76
2023/05/03 05:38:35;;;;;;;;;;;;;;;-140.72;100.00;52825.13;5090758;28;20302;-75
2023/05/03 05:41:00;;;;;;;;;;;;;;;-140.72;100.00;52796.72;5081650;28;19986;-77
2023/05/03 05:43:26;;;;;;;;;;;;;;;-140.72;100.00;52857.59;5090480;28;19916;-76
2023/05/03 05:45:51;;;;;;;;;;;;;;;-140.72;100.00;52845.41;5085057;28;19939;-77
2023/05/03 05:48:16;;;;;;;;;;;;;;;-140.72;100.00;52825.13;5088449;28;19920;-76
2023/05/03 05:50:41;;;;;;;;;;;;;;;-140.72;100.00;52821.06;5092723;28;19916;-76
2023/05/03 05:53:07;;;;;;;;;;;;;;;-140.72;100.00;52796.72;5085580;28;20396;-76
2023/05/03 05:55:33;;;;;;;;;;;;;;;-140.72;100.00;52821.06;5075837;28;20891;-76
2023/05/03 05:57:58;;;;;;;;;;;;;;;-140.72;100.00;52808.88;5088115;28;19952;-73
2023/05/03 06:00:24;;;;;;;;;;;;;;;-140.72;100.00;52823.09;5083536;28;19920;-73
2023/05/03 06:02:49;;;;;;;;;;;;;;;-140.72;100.00;52796.72;5088118;28;20352;-73
2023/05/03 06:05:15;;;;;;;;;;;;;;;-140.72;100.00;52835.25;5079228;28;19916;-72
2023/05/03 06:07:40;;;;;;;;;;;;;;;-140.72;100.00;52782.50;5085355;28;20487;-72
2023/05/03 06:10:05;;;;;;;;;;;;;;;-140.72;100.00;52792.66;5080060;28;20046;-74
2023/05/03 06:12:31;;;;;;;;;;;;;;;-140.72;100.00;52772.34;5086993;28;20294;-74
2023/05/03 06:14:56;;;;;;;;;;;;;;;-140.72;100.00;52833.22;5094507;28;19920;-74
2023/05/03 06:17:25;;;;;;;;;;;;;;;-140.72;100.00;52796.72;5096496;28;19919;-74
2023/05/03 06:19:51;;;;;;;;;;;;;;;-140.72;100.00;52804.81;5093595;28;20340;-73
2023/05/03 06:22:16;;;;;;;;;;;;;;;-140.72;100.00;52800.75;5099607;28;20027;-73
2023/05/03 06:24:41;;;;;;;;;;;;;;;-140.72;100.00;52792.66;5092210;28;20331;-74
2023/05/03 06:27:06;;;;;;;;;;;;;;;-140.72;100.00;52804.81;5087526;28;19923;-74
2023/05/03 06:29:32;;;;;;;;;;;;;;;-140.72;100.00;52821.06;5081419;28;19920;-73
2023/05/03 06:31:57;;;;;;;;;;;;;;;-140.72;100.00;52786.56;5091565;28;20929;-73
2023/05/03 06:34:22;;;;;;;;;;;;;;;-140.72;100.00;52804.81;5089485;28;19929;-73
2023/05/03 06:36:48;;;;;;;;;;;;;;;-140.72;100.00;52772.34;5087632;28;20011;-77
2023/05/03 06:39:13;;;;;;;;;;;;;;;-140.72;100.00;52780.47;5087584;28;20002;-75
2023/05/03 06:41:39;;;;;;;;;;;;;;;-140.72;100.00;52800.75;5093180;28;20037;-73
2023/05/03 06:44:06;;;;;;;;;;;;;;;-140.72;100.00;52788.59;5092143;28;20124;-74
2023/05/03 06:46:38;;;;;;;;;;;;;;;-140.72;100.00;52804.81;5088622;28;20291;-74
2023/05/03 06:49:03;;;;;;;;;;;;;;;-140.72;100.00;52741.91;5083493;28;19927;-74
2023/05/03 06:51:29;;;;;;;;;;;;;;;-140.72;100.00;52780.47;5084851;28;19920;-74
2023/05/03 06:54:09;;;;;;;;;;;;;;;-140.72;100.00;52794.69;5094842;28;19928;-76
2023/05/03 06:56:35;;;;;;;;;;;;;;;-140.72;100.00;52786.56;5086549;28;19921;-74
2023/05/03 06:59:00;;;;;;;;;;;;;;;-140.72;100.00;52784.53;5087931;28;19920;-73
2023/05/03 07:01:26;;;;;;;;;;;;;;;-140.72;100.00;52776.41;5088445;28;19924;-73
2023/05/03 07:03:51;;;;;;;;;;;;;;;-140.72;100.00;52796.72;5092145;28;19920;-73
2023/05/03 07:06:17;;;;;;;;;;;;;;;-140.72;100.00;52743.94;5086471;28;19916;-74
2023/05/03 07:08:42;;;;;;;;;;;;;;;-140.72;100.00;52780.47;5092864;28;19925;-73
2023/05/03 07:11:08;;;;;;;;;;;;;;;-140.72;100.00;52766.25;5087289;28;19931;-74
2023/05/03 07:13:34;;;;;;;;;;;;;;;-140.72;100.00;52745.97;5097718;28;19980;-74
2023/05/03 07:15:59;;;;;;;;;;;;;;;-140.72;100.00;52743.94;5095069;28;19920;-74
2023/05/03 07:18:24;;;;;;;;;;;;;;;-140.72;100.00;52735.81;5090370;28;19969;-74
2023/05/03 07:20:50;;;;;;;;;;;;;;;-140.72;90.43;52717.56;5092458;28;19985;-73
2023/05/03 07:23:17;;;;;;;;;;;;;;;-140.72;78.03;52748.00;5096462;28;19931;-74
2023/05/03 07:25:42;;;;;;;;;;;;;;;-140.72;59.04;52739.88;5095493;28;19922;-74
2023/05/03 07:28:07;;;;;;;;;;;;;;;-140.72;25.31;52760.19;5088142;28;19920;-73
2023/05/03 07:33:42;;;;;;;;;;;;;;;-140.72;0.00;52752.06;5082693;28;20003;-73
2023/05/03 07:36:08;;;;;;;;;;;;;;;-140.72;0.00;52748.00;5094067;28;19974;-73
2023/05/03 07:38:33;;;;;;;;;;;;;;;-140.72;0.00;52707.41;5092141;28;19916;-73
2023/05/03 07:40:58;;;;;;;;;;;;;;;-140.72;0.00;52717.56;5096259;28;20363;-73
2023/05/03 07:43:23;;;;;;;;;;;;;;;-140.72;0.00;52711.47;5078971;28;19920;-74
2023/05/03 07:45:49;;;;;;;;;;;;;;;-140.72;0.00;52739.88;5091631;28;19921;-73
2023/05/03 07:48:14;;;;;;;;;;;;;;;-140.72;0.00;52687.13;5088463;28;19916;-74
2023/05/03 07:50:43;;;;;;;;;;;;;;;-140.72;0.00;52721.63;5076732;28;19916;-74
2023/05/03 07:53:09;;;;;;;;;;;;;;;-140.72;0.00;52713.50;5084552;28;20007;-73
2023/05/03 07:55:35;;;;;;;;;;;;;;;-140.72;0.00;52715.53;5093775;28;19920;-72
2023/05/03 07:58:00;;;;;;;;;;;;;;;-140.72;0.00;52719.59;5086573;28;19924;-73
2023/05/03 08:00:26;;;;;;;;;;;;;;;-140.72;0.00;52723.66;5087970;28;20008;-74
2023/05/03 08:02:51;;;;;;;;;;;;;;;-140.72;0.00;52705.38;5091787;28;20389;-72
2023/05/03 08:05:17;;;;;;;;;;;;;;;-140.72;0.00;52683.06;5107952;28;19923;-72
2023/05/03 08:07:43;;;;;;;;;;;;;;;-140.72;0.00;52717.56;5090670;28;20805;-74
2023/05/03 08:10:09;;;;;;;;;;;;;;;-140.72;0.00;52666.84;5091129;28;19951;-73
2023/05/03 08:12:34;;;;;;;;;;;;;;;-140.72;0.00;52685.09;5088267;28;19970;-73
2023/05/03 08:15:00;;;;;;;;;;;;;;;-140.72;0.00;52640.44;5086813;28;19969;-72
2023/05/03 08:17:25;;;;;;;;;;;;;;;-140.72;0.00;52607.97;5088029;28;19920;-72
2023/05/03 08:19:51;;;;;;;;;;;;;;;-140.72;0.00;52672.91;5093914;28;20007;-72
2023/05/03 08:22:17;;;;;;;;;;;;;;;-140.72;0.00;52640.44;5090487;28;19924;-72
2023/05/03 08:24:42;;;;;;;;;;;;;;;-140.72;0.00;52628.28;5082648;28;20007;-73
2023/05/03 08:27:08;;;;;;;;;;;;;;;-140.72;0.00;52634.38;5084697;28;19923;-73
2023/05/03 08:29:36;;;;;;;;;;;;;;;-140.72;0.00;52616.09;5091951;28;20045;-73
2023/05/03 08:32:01;;;;;;;;;;;;;;;-140.72;0.00;52618.13;5096880;28;19920;-72
2023/05/03 08:34:27;;;;;;;;;;;;;;;-140.72;0.00;52632.34;5093323;28;19969;-76
2023/05/03 08:36:52;;;;;;;;;;;;;;;-140.72;0.00;52589.72;5094866;28;20002;-79
2023/05/03 08:39:17;;;;;;;;;;;;;;;-140.72;0.00;52599.88;5089825;28;19916;-74
2023/05/03 08:41:43;;;;;;;;;;;;;;;-140.72;0.00;52605.94;5096105;28;19979;-73
2023/05/03 08:44:13;;;;;;;;;;;;;;;-140.72;0.00;52569.44;5092343;28;19920;-75
2023/05/03 08:46:41;;;;;;;;;;;;;;;-140.72;0.00;52575.50;5087602;28;19923;-73
2023/05/03 08:49:07;;;;;;;;;;;;;;;-140.72;0.00;52524.78;5084130;28;20712;-73
2023/05/03 08:51:33;;;;;;;;;;;;;;;-140.72;0.00;52496.38;5095639;28;19924;-74
2023/05/03 08:53:58;;;;;;;;;;;;;;;-140.72;0.00;52492.31;5088661;28;20014;-74
2023/05/03 08:56:38;;;;;;;;;;;;;;;-140.72;0.00;52480.16;5083156;28;19926;-74
2023/05/03 08:59:06;;;;;;;;;;;;;;;-140.72;0.00;52526.81;5092516;28;20015;-73
2023/05/03 09:01:32;;;;;;;;;;;;;;;-140.72;0.00;52500.44;5088619;28;19920;-72
2023/05/03 09:04:13;;;;;;;;;;;;;;;-140.72;0.00;52463.91;5081295;28;19920;-72
2023/05/03 09:06:38;;;;;;;;;;;;;;;-140.72;0.00;52443.63;5093891;28;20351;-72
2023/05/03 09:09:06;;;;;;;;;;;;;;;-140.72;0.00;52435.50;5085651;28;19956;-72
2023/05/03 09:11:32;;;;;;;;;;;;;;;-140.72;0.00;52388.84;5083024;28;19973;-74
2023/05/03 09:14:07;;;;;;;;;;;;;;;-140.72;0.00;52382.75;5088221;28;19920;-72
2023/05/03 09:16:32;;;;;;;;;;;;;;;-140.72;0.00;52376.66;5085916;28;19924;-73
2023/05/03 09:19:01;;;;;;;;;;;;;;;-140.72;0.00;52366.50;5089337;28;19924;-73
2023/05/03 09:21:27;;;;;;;;;;;;;;;-140.72;0.00;52455.78;5088264;28;20069;-73
2023/05/03 09:23:52;;;;;;;;;;;;;;;-140.72;0.00;52476.09;5091312;28;20010;-73
2023/05/03 09:26:31;;;;;;;;;;;;;;;-140.72;0.00;52396.94;5085301;28;19967;-73
2023/05/03 09:29:00;;;;;;;;;;;;;;;-140.72;0.00;52378.69;5091062;28;19920;-73
2023/05/03 09:31:26;;;;;;;;;;;;;;;-140.72;0.00;52358.41;5089635;28;19939;-73
2023/05/03 09:33:52;;;;;;;;;;;;;;;-140.72;0.00;52336.06;5082609;28;20282;-73
2023/05/03 09:36:17;;;;;;;;;;;;;;;-140.72;0.00;52336.06;5089972;28;19920;-73
2023/05/03 09:38:43;;;;;;;;;;;;;;;-140.72;0.00;52269.13;5086342;28;19927;-73
2023/05/03 09:41:09;;;;;;;;;;;;;;;-140.72;0.00;52305.63;5088388;28;20312;-73
2023/05/03 09:43:34;;;;;;;;;;;;;;;-140.72;0.00;52301.59;5087758;28;19950;-73
2023/05/03 09:49:03;;;;;;;;;;;;;;;-140.72;0.00;52236.66;5090394;28;20073;-73
2023/05/03 09:51:28;;;;;;;;;;;;;;;-140.72;0.00;52346.22;5090752;28;19969;-72
2023/05/03 09:53:55;;;;;;;;;;;;;;;-140.72;0.00;52405.06;5091068;28;19916;-72
2023/05/03 09:56:25;;;;;;;;;;;;;;;-140.72;0.00;52299.56;5084268;28;20287;-72
2023/05/03 09:58:50;;;;;;;;;;;;;;;-140.72;0.00;52263.03;5074133;28;19923;-72
2023/05/03 10:01:16;;;;;;;;;;;;;;;-140.72;0.00;52230.56;5079821;28;20335;-71
2023/05/03 10:03:42;;;;;;;;;;;;;;;-140.72;0.00;52261.00;5084531;28;19987;-71
2023/05/03 10:06:14;;;;;;;;;;;;;;;-140.72;0.00;52196.06;5088410;28;19916;-72
2023/05/03 10:08:40;;;;;;;;;;;;;;;-140.72;0.00;52340.13;5082317;28;19924;-71
2023/05/03 10:11:07;;;;;;;;;;;;;;;-140.72;0.00;52157.53;5077643;28;19924;-71
2023/05/03 10:13:32;;;;;;;;;;;;;;;-140.72;0.00;52200.13;5090481;28;19927;-72
2023/05/03 10:16:01;;;;;;;;;;;;;;;-140.72;0.00;52236.66;5086183;28;19916;-73
2023/05/03 10:18:28;;;;;;;;;;;;;;;-140.72;0.00;52248.81;5083575;28;19928;-73
2023/05/03 10:20:57;;;;;;;;;;;;;;;-140.72;0.00;52212.31;5094554;28;20370;-73
2023/05/03 10:23:22;;;;;;;;;;;;;;;-140.72;0.00;52222.44;5083128;28;19971;-73
2023/05/03 10:26:17;;;;;;;;;;;;;;;-140.72;0.00;52143.31;5093400;28;19964;-73
2023/05/03 10:28:42;;;;;;;;;;;;;;;-140.72;0.00;52167.66;5077369;28;19927;-75
2023/05/03 10:31:28;;;;;;;;;;;;;;;-140.72;0.00;52153.47;5086241;28;20352;-73
2023/05/03 10:33:53;;;;;;;;;;;;;;;-140.72;0.00;52145.34;5083447;28;20015;-72
2023/05/03 10:36:18;;;;;;;;;;;;;;;-140.72;0.00;52139.25;5084429;28;20015;-72
2023/05/03 10:38:55;;;;;;;;;;;;;;;-140.72;0.00;52066.22;5082492;28;19920;-72
2023/05/03 10:41:25;;;;;;;;;;;;;;;-140.72;0.00;52163.59;5089011;28;20016;-72
2023/05/03 10:43:50;;;;;;;;;;;;;;;-140.72;0.00;52123.03;5087915;28;20351;-73
2023/05/03 10:46:30;;;;;;;;;;;;;;;-140.72;0.00;52110.84;5091888;28;19946;-75
2023/05/03 10:49:14;;;;;;;;;;;;;;;-140.72;0.00;52094.63;5088171;28;19998;-71
2023/05/03 10:51:41;;;;;;;;;;;;;;;-140.72;0.00;52171.72;5083763;28;19946;-71
2023/05/03 10:54:07;;;;;;;;;;;;;;;-140.72;0.00;52098.69;5076685;28;19962;-70
2023/05/03 10:56:45;;;;;;;;;;;;;;;-140.72;0.00;52114.91;5087401;28;20321;-70
2023/05/03 10:59:11;;;;;;;;;;;;;;;-140.72;0.00;52064.19;5078648;28;19920;-71
2023/05/03 11:01:36;;;;;;;;;;;;;;;-140.72;0.00;52084.47;5079627;28;19966;-71
2023/05/03 11:04:20;;;;;;;;;;;;;;;-140.72;0.00;52127.09;5097146;28;19974;-71
2023/05/03 11:06:48;;;;;;;;;;;;;;;-140.72;0.00;52080.41;5078999;28;20011;-72
2023/05/03 11:09:13;;;;;;;;;;;;;;;-140.72;0.00;52023.59;5080698;28;19916;-71
2023/05/03 11:11:39;;;;;;;;;;;;;;;-140.72;0.00;52045.94;5092315;28;19916;-71
2023/05/03 11:14:05;;;;;;;;;;;;;;;-140.72;0.00;52025.63;5094720;28;19916;-71
2023/05/03 11:16:30;;;;;;;;;;;;;;;-140.72;0.00;51985.06;5083418;28;19924;-71
2023/05/03 11:18:55;;;;;;;;;;;;;;;-140.72;0.00;51987.09;5095887;28;19926;-71
2023/05/03 11:21:22;;;;;;;;;;;;;;;-140.72;0.00;51991.16;5076587;28;19917;-72
2023/05/03 11:23:47;;;;;;;;;;;;;;;-140.72;0.00;51995.19;5089919;28;19999;-72
2023/05/03 11:26:12;;;;;;;;;;;;;;;-140.72;0.00;51972.88;5093703;28;19978;-71
2023/05/03 11:28:41;;;;;;;;;;;;;;;-140.72;0.00;51981.00;5083011;28;20007;-72
2023/05/03 11:31:10;;;;;;;;;;;;;;;-140.72;0.00;51985.06;5086949;28;19921;-73
2023/05/03 11:33:36;;;;;;;;;;;;;;;-140.72;0.00;52021.56;5092068;28;19920;-71
2023/05/03 11:36:02;;;;;;;;;;;;;;;-140.72;0.00;52023.59;5084524;28;19916;-72
2023/05/03 11:38:29;;;;;;;;;;;;;;;-140.72;0.00;51997.22;5082467;28;19956;-72
2023/05/03 11:40:55;;;;;;;;;;;;;;;-140.72;0.00;51964.78;5089555;28;20285;-72
2023/05/03 11:43:20;;;;;;;;;;;;;;;-140.72;0.00;51907.97;5090710;28;19927;-72
2023/05/03 11:45:47;;;;;;;;;;;;;;;-140.72;0.00;51901.88;5094498;28;20015;-72
2023/05/03 11:48:13;;;;;;;;;;;;;;;-140.72;0.00;51954.63;5093932;28;19916;-72
2023/05/03 11:50:47;;;;;;;;;;;;;;;-140.72;0.00;51899.84;5084229;28;19977;-71
2023/05/03 11:53:13;;;;;;;;;;;;;;;-140.72;0.00;51881.59;5076566;28;19924;-72
2023/05/03 11:55:40;;;;;;;;;;;;;;;-140.72;0.00;51914.03;5074490;28;19916;-71
2023/05/03 11:58:07;;;;;;;;;;;;;;;-140.72;0.00;51910.00;5085685;28;20274;-72
2023/05/03 12:00:32;;;;;;;;;;;;;;;-140.72;0.00;51958.69;5094156;28;20374;-72
2023/05/03 12:02:58;;;;;;;;;;;;;;;-140.72;0.00;51914.03;5094567;28;19941;-72
2023/05/03 12:05:23;;;;;;;;;;;;;;;-140.72;0.00;51879.56;5101194;28;19922;-72
2023/05/03 12:07:49;;;;;;;;;;;;;;;-140.72;0.00;51920.13;5095375;28;19923;-72
2023/05/03 12:10:18;;;;;;;;;;;;;;;-140.72;0.00;51901.88;5108350;28;19924;-72
2023/05/03 12:12:53;;;;;;;;;;;;;;;-140.72;0.00;51993.19;5080933;28;19921;-72
2023/05/03 12:15:26;;;;;;;;;;;;;;;-140.72;0.00;51928.25;5100627;28;19916;-72
2023/05/03 12:17:54;;;;;;;;;;;;;;;-140.72;0.00;51948.53;5104901;27;19916;-72
2023/05/03 12:20:21;;;;;;;;;;;;;;;-140.72;0.00;51895.78;5094605;28;20371;-72
2023/05/03 12:22:50;;;;;;;;;;;;;;;-140.72;0.00;51865.34;5090892;28;19920;-72
2023/05/03 12:25:15;;;;;;;;;;;;;;;-140.72;0.00;51899.84;5089371;28;20023;-72
2023/05/03 12:27:40;;;;;;;;;;;;;;;-140.72;0.00;51885.66;5082139;28;20050;-72
2023/05/03 12:30:09;;;;;;;;;;;;;;;-140.72;0.00;51867.38;5084515;28;19917;-72